createdAt,value
2019-06-01T00:04:33.078Z,3.53
2019-06-01T00:09:28.093Z,3.00
2019-06-01T00:14:22.835Z,3.40
2019-06-01T00:19:17.588Z,3.40
2019-06-01T00:24:12.333Z,3.40
2019-06-01T00:29:07.076Z,3.30
2019-06-01T00:34:01.905Z,3.30
2019-06-01T00:38:56.653Z,3.33
2019-06-01T00:43:52.717Z,3.10
2019-06-01T00:48:47.890Z,3.70
2019-06-01T00:53:45.385Z,3.43
2019-06-01T00:58:40.197Z,3.80
2019-06-01T01:03:35.032Z,3.60
2019-06-01T01:08:29.783Z,3.90
2019-06-01T01:13:26.124Z,3.50
2019-06-01T01:18:20.870Z,3.70
2019-06-01T01:23:15.623Z,3.60
2019-06-01T01:28:10.362Z,3.87
2019-06-01T01:33:05.383Z,3.87
2019-06-01T01:38:00.141Z,3.70
2019-06-01T01:42:54.879Z,3.30
2019-06-01T01:47:50.822Z,3.53
2019-06-01T01:52:45.628Z,4.10
2019-06-01T01:57:40.378Z,3.60
2019-06-01T02:02:35.212Z,3.77
2019-06-01T02:07:29.951Z,3.93
2019-06-01T02:12:24.937Z,3.90
2019-06-01T02:17:19.875Z,4.23
2019-06-01T02:22:14.645Z,4.17
2019-06-01T02:27:09.482Z,3.70
2019-06-01T02:32:06.504Z,3.67
2019-06-01T02:37:02.287Z,3.90
2019-06-01T02:41:59.021Z,4.87
2019-06-01T02:46:55.333Z,9.30
2019-06-01T02:51:50.272Z,15.97
2019-06-01T02:56:45.029Z,22.23
2019-06-01T03:01:56.009Z,28.47
2019-06-01T03:06:41.320Z,36.20
2019-06-01T03:11:36.759Z,39.07
2019-06-01T03:16:31.552Z,42.30
2019-06-01T03:21:29.487Z,40.57
2019-06-01T03:26:25.426Z,34.63
2019-06-01T03:31:20.421Z,42.47
2019-06-01T03:36:15.561Z,34.97
2019-06-01T03:41:12.381Z,27.47
2019-06-01T03:46:07.239Z,24.07
2019-06-01T03:51:02.003Z,23.10
2019-06-01T03:55:57.747Z,16.67
2019-06-01T04:00:52.520Z,11.17
2019-06-01T04:05:47.266Z,14.40
2019-06-01T04:10:42.700Z,11.10
2019-06-01T04:15:37.454Z,7.73
2019-06-01T04:20:34.310Z,5.80
2019-06-01T04:25:32.382Z,5.77
2019-06-01T04:30:27.513Z,4.63
2019-06-01T04:35:22.330Z,4.10
2019-06-01T04:40:17.316Z,4.40
2019-06-01T04:45:12.562Z,3.93
2019-06-01T04:50:08.751Z,4.20
2019-06-01T04:55:07.317Z,4.37
2019-06-01T05:00:10.347Z,4.40
2019-06-01T05:05:01.119Z,4.20
2019-06-01T05:09:55.932Z,4.60
2019-06-01T05:14:50.629Z,4.93
2019-06-01T05:19:45.403Z,5.03
2019-06-01T05:24:40.150Z,5.00
2019-06-01T05:29:39.202Z,5.03
2019-06-01T05:34:33.902Z,4.80
2019-06-01T05:39:28.649Z,5.60
2019-06-01T05:44:23.395Z,5.60
2019-06-01T05:49:18.631Z,5.77
2019-06-01T05:54:14.542Z,6.87
2019-06-01T05:59:10.374Z,8.70
2019-06-01T06:04:05.204Z,7.67
2019-06-01T06:08:59.952Z,7.43
2019-06-01T06:13:54.699Z,6.40
2019-06-01T06:18:49.739Z,6.60
2019-06-01T06:23:44.528Z,6.60
2019-06-01T06:28:39.269Z,6.40
2019-06-01T06:33:36.839Z,6.40
2019-06-01T06:38:30.468Z,6.37
2019-06-01T06:43:32.902Z,6.33
2019-06-01T06:48:23.702Z,6.37
2019-06-01T06:53:28.237Z,6.73
2019-06-01T06:58:16.052Z,5.70
2019-06-01T07:03:13.830Z,6.27
2019-06-01T07:08:08.563Z,5.90
2019-06-01T07:13:04.382Z,5.70
2019-06-01T07:17:59.127Z,5.37
2019-06-01T07:22:53.867Z,5.20
2019-06-01T07:27:48.946Z,5.33
2019-06-01T07:32:43.859Z,5.10
2019-06-01T07:37:38.714Z,4.63
2019-06-01T07:42:33.612Z,5.13
2019-06-01T07:47:29.190Z,4.00
2019-06-01T07:52:26.178Z,3.17
2019-06-01T07:57:21.592Z,2.75
2019-06-01T08:02:16.636Z,3.00
2019-06-01T08:07:11.743Z,3.30
2019-06-01T08:12:07.028Z,2.98
2019-06-01T08:17:02.004Z,3.22
2019-06-01T08:21:58.137Z,3.17
2019-06-01T08:26:53.065Z,3.08
2019-06-01T08:31:48.073Z,3.05
2019-06-01T08:36:43.430Z,2.70
2019-06-01T08:41:38.425Z,2.83
2019-06-01T08:46:33.972Z,2.70
2019-06-01T08:51:29.927Z,2.40
2019-06-01T08:56:26.021Z,2.10
2019-06-01T09:01:21.083Z,2.10
2019-06-01T09:06:16.125Z,2.37
2019-06-01T09:11:13.182Z,2.50
2019-06-01T09:16:09.260Z,2.37
2019-06-01T09:21:05.262Z,2.40
2019-06-01T09:26:00.452Z,2.10
2019-06-01T09:30:55.438Z,2.10
2019-06-01T09:35:56.117Z,1.82
2019-06-01T09:40:53.981Z,2.30
2019-06-01T09:45:53.369Z,1.95
2019-06-01T09:50:48.516Z,1.85
2019-06-01T09:55:43.627Z,1.92
2019-06-01T10:00:43.001Z,1.92
2019-06-01T10:05:36.476Z,1.70
2019-06-01T10:10:31.924Z,1.50
2019-06-01T10:15:26.847Z,1.57
2019-06-01T10:20:21.847Z,1.80
2019-06-01T10:25:18.846Z,1.82
2019-06-01T10:30:14.062Z,1.65
2019-06-01T10:35:09.072Z,1.82
2019-06-01T10:40:04.383Z,2.02
2019-06-01T10:44:59.322Z,1.70
2019-06-01T10:49:54.277Z,2.00
2019-06-01T10:54:49.186Z,1.70
2019-06-01T10:59:44.218Z,1.80
2019-06-01T11:04:39.156Z,1.90
2019-06-01T11:09:34.873Z,1.80
2019-06-01T11:14:29.899Z,2.15
2019-06-01T11:19:24.844Z,1.98
2019-06-01T11:24:19.831Z,2.40
2019-06-01T11:29:14.817Z,2.08
2019-06-01T11:34:13.878Z,2.15
2019-06-01T11:39:08.877Z,2.00
2019-06-01T11:44:03.950Z,1.87
2019-06-01T11:48:58.922Z,1.70
2019-06-01T11:53:53.779Z,1.50
2019-06-01T11:58:49.316Z,1.60
2019-06-01T12:03:46.047Z,1.60
2019-06-01T12:08:42.242Z,1.75
2019-06-01T12:13:38.114Z,1.82
2019-06-01T12:18:33.121Z,1.80
2019-06-01T12:23:28.087Z,1.82
2019-06-01T12:28:22.991Z,1.55
2019-06-01T12:33:17.859Z,1.60
2019-06-01T12:38:13.043Z,1.50
2019-06-01T12:43:08.063Z,1.77
2019-06-01T12:48:03.073Z,1.60
2019-06-01T12:53:00.094Z,1.87
2019-06-01T12:57:54.971Z,1.77
2019-06-01T13:03:02.189Z,1.60
2019-06-01T13:07:55.181Z,1.72
2019-06-01T13:12:43.690Z,1.70
2019-06-01T13:17:38.693Z,1.77
2019-06-01T13:22:33.629Z,1.50
2019-06-01T13:27:28.567Z,1.60
2019-06-01T13:32:23.467Z,1.70
2019-06-01T13:37:18.368Z,1.82
2019-06-01T13:42:13.262Z,1.50
2019-06-01T13:47:08.188Z,1.60
2019-06-01T13:52:03.091Z,1.55
2019-06-01T13:56:58.104Z,1.52
2019-06-01T14:01:53.238Z,1.42
2019-06-01T14:06:49.016Z,1.87
2019-06-01T14:11:45.240Z,1.50
2019-06-01T14:16:40.267Z,1.75
2019-06-01T14:21:36.742Z,1.50
2019-06-01T14:26:31.636Z,1.60
2019-06-01T14:31:26.505Z,1.75
2019-06-01T14:36:21.365Z,1.57
2019-06-01T14:41:16.407Z,1.50
2019-06-01T14:46:11.264Z,1.60
2019-06-01T14:51:06.517Z,1.30
2019-06-01T14:56:01.692Z,1.77
2019-06-01T15:00:56.729Z,1.57
2019-06-01T15:05:52.293Z,1.50
2019-06-01T15:10:48.631Z,1.60
2019-06-01T15:15:43.728Z,1.70
2019-06-01T15:20:38.875Z,1.70
2019-06-01T15:25:33.770Z,5.70
2019-06-01T15:30:28.844Z,1.77
2019-06-01T15:35:23.739Z,4.75
2019-06-01T15:40:18.736Z,2.40
2019-06-01T15:45:14.834Z,1.60
2019-06-01T15:50:10.620Z,1.70
2019-06-01T15:55:06.290Z,1.60
2019-06-01T16:00:01.215Z,1.50
2019-06-01T16:04:57.035Z,1.55
2019-06-01T16:09:59.302Z,1.70
2019-06-01T16:14:55.473Z,3.80
2019-06-01T16:19:50.684Z,2.62
2019-06-01T16:24:45.674Z,10.95
2019-06-01T16:29:40.622Z,9.58
2019-06-01T16:34:35.564Z,3.10
2019-06-01T16:39:30.477Z,2.90
2019-06-01T16:44:25.460Z,1.70
2019-06-01T16:49:20.350Z,2.00
2019-06-01T16:54:16.316Z,1.80
2019-06-01T16:59:11.182Z,1.57
2019-06-01T17:04:06.690Z,1.70
2019-06-01T17:09:03.649Z,1.80
2019-06-01T17:14:00.716Z,1.80
2019-06-01T17:18:56.881Z,1.77
2019-06-01T17:23:55.024Z,1.60
2019-06-01T17:28:49.987Z,1.70
2019-06-01T17:33:48.091Z,1.67
2019-06-01T17:38:43.068Z,1.70
2019-06-01T17:43:37.978Z,1.60
2019-06-01T17:48:33.010Z,1.80
2019-06-01T17:53:27.973Z,1.90
2019-06-01T17:58:22.998Z,1.80
2019-06-01T18:03:17.997Z,1.62
2019-06-01T18:08:13.020Z,1.80
2019-06-01T18:13:08.664Z,2.05
2019-06-01T18:18:04.431Z,2.20
2019-06-01T18:22:59.477Z,2.33
2019-06-01T18:27:54.492Z,2.50
2019-06-01T18:32:49.775Z,2.20
2019-06-01T18:37:44.801Z,2.27
2019-06-01T18:42:39.758Z,2.08
2019-06-01T18:47:34.890Z,1.90
2019-06-01T18:52:29.848Z,2.02
2019-06-01T18:57:25.784Z,2.05
2019-06-01T19:02:26.607Z,2.10
2019-06-01T19:07:22.299Z,1.90
2019-06-01T19:12:17.208Z,2.10
2019-06-01T19:17:17.934Z,2.52
2019-06-01T19:22:12.975Z,2.20
2019-06-01T19:27:08.668Z,2.10
2019-06-01T19:32:03.712Z,2.40
2019-06-01T19:36:59.935Z,2.12
2019-06-01T19:41:54.873Z,2.25
2019-06-01T19:46:49.731Z,2.15
2019-06-01T19:51:45.639Z,2.52
2019-06-01T19:56:40.511Z,2.00
2019-06-01T20:01:35.380Z,2.45
2019-06-01T20:06:36.153Z,2.45
2019-06-01T20:11:34.178Z,2.70
2019-06-01T20:16:29.112Z,2.60
2019-06-01T20:21:24.089Z,3.10
2019-06-01T20:26:22.733Z,2.58
2019-06-01T20:31:23.592Z,2.87
2019-06-01T20:36:18.606Z,3.02
2019-06-01T20:41:15.136Z,2.98
2019-06-01T20:46:10.247Z,2.50
2019-06-01T20:51:05.182Z,3.13
2019-06-01T20:56:00.042Z,2.97
2019-06-01T21:00:54.985Z,2.97
2019-06-01T21:05:51.035Z,3.30
2019-06-01T21:10:46.036Z,3.10
2019-06-01T21:15:41.015Z,3.30
2019-06-01T21:20:36.023Z,3.50
2019-06-01T21:25:31.091Z,3.40
2019-06-01T21:30:26.620Z,4.03
2019-06-01T21:35:23.643Z,3.83
2019-06-01T21:40:19.418Z,3.80
2019-06-01T21:45:15.513Z,3.67
2019-06-01T21:50:11.022Z,3.50
2019-06-01T21:55:06.099Z,3.70
2019-06-01T22:00:01.008Z,3.60
2019-06-01T22:04:56.010Z,3.60
2019-06-01T22:09:51.105Z,3.20
2019-06-01T22:14:46.109Z,3.50
2019-06-01T22:19:41.044Z,3.70
2019-06-01T22:24:35.988Z,3.83
2019-06-01T22:29:31.055Z,3.53
2019-06-01T22:34:26.976Z,3.50
2019-06-01T22:39:22.754Z,3.13
2019-06-01T22:44:17.720Z,3.50
2019-06-01T22:49:12.750Z,3.03
2019-06-01T22:54:07.747Z,3.20
2019-06-01T22:59:02.641Z,3.50
2019-06-01T23:03:57.577Z,3.30
2019-06-01T23:08:58.476Z,3.50
2019-06-01T23:13:53.989Z,3.90
2019-06-01T23:18:50.083Z,3.33
2019-06-01T23:23:45.017Z,3.70
2019-06-01T23:28:39.973Z,3.60
2019-06-01T23:33:34.923Z,4.00
2019-06-01T23:38:30.799Z,3.93
2019-06-01T23:43:26.925Z,4.40
2019-06-01T23:48:23.125Z,4.07
2019-06-01T23:53:18.379Z,4.50
2019-06-01T23:58:19.263Z,4.30
